createdAt,value
2023-02-11T00:02:00.862Z,1.23
2023-02-11T00:05:10.640Z,1.75
2023-02-11T00:08:18.758Z,2.20
2023-02-11T00:11:30.214Z,1.20
2023-02-11T00:14:38.266Z,1.45
2023-02-11T00:17:45.983Z,1.75
2023-02-11T00:20:55.031Z,1.30
2023-02-11T00:24:03.150Z,2.08
2023-02-11T00:27:10.870Z,1.48
2023-02-11T00:30:18.988Z,1.67
2023-02-11T00:33:27.105Z,2.30
2023-02-11T00:36:37.147Z,1.45
2023-02-11T00:39:44.862Z,1.23
2023-02-11T00:42:52.937Z,1.75
2023-02-11T00:46:00.962Z,1.40
2023-02-11T00:49:09.127Z,1.23
2023-02-11T00:52:18.616Z,1.35
2023-02-11T00:55:26.805Z,1.70
2023-02-11T00:58:35.076Z,1.17
2023-02-11T01:01:43.243Z,1.67
2023-02-11T01:04:51.169Z,1.40
2023-02-11T01:08:00.375Z,1.80
2023-02-11T01:11:09.260Z,1.50
2023-02-11T01:14:17.215Z,1.75
2023-02-11T01:17:25.280Z,1.50
2023-02-11T01:20:33.310Z,1.10
2023-02-11T01:23:42.445Z,1.80
2023-02-11T01:26:52.922Z,1.60
2023-02-11T01:30:00.871Z,1.60
2023-02-11T01:33:09.043Z,1.33
2023-02-11T01:36:18.595Z,1.10
2023-02-11T01:39:27.772Z,1.45
2023-02-11T01:42:35.951Z,1.67
2023-02-11T01:46:03.052Z,1.58
2023-02-11T01:49:12.397Z,1.33
2023-02-11T01:52:22.480Z,1.70
2023-02-11T01:55:49.369Z,1.83
2023-02-11T01:58:59.114Z,1.35
2023-02-11T02:02:08.495Z,1.90
2023-02-11T02:05:21.130Z,1.65
2023-02-11T02:08:32.046Z,1.40
2023-02-11T02:11:41.303Z,2.00
2023-02-11T02:14:49.939Z,1.30
2023-02-11T02:18:03.701Z,1.40
2023-02-11T02:21:46.129Z,1.77
2023-02-11T02:25:01.033Z,1.57
2023-02-11T02:28:18.917Z,1.63
2023-02-11T02:31:40.051Z,1.55
2023-02-11T02:34:51.123Z,1.77
2023-02-11T02:38:01.124Z,1.77
2023-02-11T02:41:10.209Z,1.20
2023-02-11T02:44:18.927Z,2.47
2023-02-11T02:47:26.844Z,1.48
2023-02-11T02:50:36.829Z,1.80
2023-02-11T02:53:50.529Z,2.10
2023-02-11T02:57:02.016Z,1.42
2023-02-11T03:00:23.844Z,1.90
2023-02-11T03:03:37.253Z,2.10
2023-02-11T03:06:49.478Z,1.70
2023-02-11T03:09:59.505Z,1.47
2023-02-11T03:13:07.296Z,2.28
2023-02-11T03:16:18.343Z,1.20
2023-02-11T03:19:28.221Z,1.55
2023-02-11T03:22:42.287Z,1.60
2023-02-11T03:25:53.286Z,1.58
2023-02-11T03:29:03.391Z,1.33
2023-02-11T03:32:16.054Z,1.20
2023-02-11T03:35:25.493Z,1.52
2023-02-11T03:38:35.912Z,1.83
2023-02-11T03:41:44.028Z,1.42
2023-02-11T03:44:53.809Z,1.20
2023-02-11T03:48:02.907Z,1.75
2023-02-11T03:51:11.802Z,1.42
2023-02-11T03:54:31.943Z,1.65
2023-02-11T03:57:40.072Z,1.30
2023-02-11T04:00:48.308Z,1.70
2023-02-11T04:03:56.161Z,2.05
2023-02-11T04:07:04.178Z,1.83
2023-02-11T04:10:14.341Z,1.30
2023-02-11T04:13:22.188Z,1.33
2023-02-11T04:16:30.895Z,1.30
2023-02-11T04:19:39.064Z,1.60
2023-02-11T04:22:46.850Z,1.50
2023-02-11T04:25:56.246Z,1.75
2023-02-11T04:29:04.280Z,1.92
2023-02-11T04:32:12.533Z,1.20
2023-02-11T04:35:20.453Z,1.38
2023-02-11T04:38:28.141Z,1.80
2023-02-11T04:41:37.646Z,1.50
2023-02-11T04:44:45.868Z,2.20
2023-02-11T04:47:54.160Z,1.08
2023-02-11T04:51:02.123Z,1.80
2023-02-11T04:54:10.146Z,1.60
2023-02-11T04:57:19.644Z,1.13
2023-02-11T05:00:27.780Z,1.45
2023-02-11T05:03:35.981Z,1.80
2023-02-11T05:06:44.257Z,1.70
2023-02-11T05:09:52.344Z,1.55
2023-02-11T05:13:01.726Z,1.23
2023-02-11T05:16:09.845Z,1.48
2023-02-11T05:19:17.588Z,1.52
2023-02-11T05:22:25.574Z,1.20
2023-02-11T05:25:33.509Z,1.05
2023-02-11T05:28:42.823Z,1.45
2023-02-11T05:31:50.592Z,1.60
2023-02-11T05:34:58.344Z,1.52
2023-02-11T05:38:06.379Z,1.20
2023-02-11T05:41:14.464Z,1.17
2023-02-11T05:44:23.678Z,1.65
2023-02-11T05:47:31.807Z,1.27
2023-02-11T05:50:39.995Z,1.38
2023-02-11T05:53:48.184Z,1.23
2023-02-11T05:56:56.455Z,1.45
2023-02-11T06:00:07.040Z,1.42
2023-02-11T06:03:20.320Z,1.50
2023-02-11T06:06:28.077Z,1.30
2023-02-11T06:09:36.114Z,1.60
2023-02-11T06:12:44.786Z,1.30
2023-02-11T06:16:00.258Z,1.73
2023-02-11T06:19:08.420Z,1.70
2023-02-11T06:22:16.431Z,1.10
2023-02-11T06:25:24.278Z,1.27
2023-02-11T06:28:32.520Z,0.95
2023-02-11T06:31:41.953Z,1.08
2023-02-11T06:34:49.993Z,2.75
2023-02-11T06:37:57.950Z,1.08
2023-02-11T06:41:06.072Z,1.40
2023-02-11T06:44:14.019Z,1.23
2023-02-11T06:47:23.200Z,1.42
2023-02-11T06:50:31.132Z,1.35
2023-02-11T06:53:40.120Z,1.10
2023-02-11T06:56:48.116Z,2.40
2023-02-11T06:59:56.290Z,1.25
2023-02-11T07:03:05.608Z,1.13
2023-02-11T07:06:15.622Z,1.30
2023-02-11T07:09:23.351Z,1.30
2023-02-11T07:12:31.340Z,1.10
2023-02-11T07:15:39.393Z,1.65
2023-02-11T07:18:48.932Z,1.23
2023-02-11T07:21:56.885Z,2.28
2023-02-11T07:25:05.381Z,1.05
2023-02-11T07:28:13.439Z,1.27
2023-02-11T07:31:23.422Z,1.23
2023-02-11T07:34:33.092Z,1.33
2023-02-11T07:37:41.516Z,1.10
2023-02-11T07:40:49.353Z,1.30
2023-02-11T07:43:57.139Z,1.17
2023-02-11T07:47:05.298Z,1.35
2023-02-11T07:50:14.618Z,1.27
2023-02-11T07:53:22.547Z,1.55
2023-02-11T07:56:30.894Z,1.13
2023-02-11T07:59:38.743Z,0.73
2023-02-11T08:02:46.778Z,1.02
2023-02-11T08:05:56.152Z,1.63
2023-02-11T08:09:08.098Z,1.33
2023-02-11T08:12:16.186Z,0.98
2023-02-11T08:15:23.979Z,1.10
2023-02-11T08:18:32.189Z,0.90
2023-02-11T08:21:41.488Z,1.20
2023-02-11T08:24:51.410Z,1.00
2023-02-11T08:28:00.236Z,1.20
2023-02-11T08:31:08.605Z,1.00
2023-02-11T08:34:18.975Z,1.15
2023-02-11T08:37:28.101Z,1.45
2023-02-11T08:40:36.178Z,1.08
2023-02-11T08:43:44.374Z,0.70
2023-02-11T08:46:52.384Z,1.13
2023-02-11T08:50:00.170Z,1.02
2023-02-11T08:53:09.593Z,1.23
2023-02-11T08:56:18.223Z,1.20
2023-02-11T08:59:26.421Z,0.80
2023-02-11T09:02:34.292Z,1.23
2023-02-11T09:05:43.365Z,1.30
2023-02-11T09:08:53.655Z,1.25
2023-02-11T09:12:01.582Z,1.02
2023-02-11T09:15:10.489Z,1.23
2023-02-11T09:18:18.505Z,1.25
2023-02-11T09:21:26.653Z,1.27
2023-02-11T09:24:36.119Z,1.30
2023-02-11T09:27:44.177Z,1.05
2023-02-11T09:30:52.454Z,1.50
2023-02-11T09:34:01.721Z,1.08
2023-02-11T09:37:09.707Z,1.08
2023-02-11T09:40:19.879Z,1.10
2023-02-11T09:43:30.121Z,1.20
2023-02-11T09:46:40.856Z,1.08
2023-02-11T09:49:51.287Z,0.93
2023-02-11T09:53:01.248Z,1.08
2023-02-11T09:56:13.698Z,1.83
2023-02-11T09:59:21.887Z,0.98
2023-02-11T10:02:35.308Z,1.13
2023-02-11T10:05:49.928Z,2.08
2023-02-11T10:09:03.238Z,1.15
2023-02-11T10:12:19.974Z,1.45
2023-02-11T10:15:32.878Z,1.50
2023-02-11T10:18:47.872Z,1.45
2023-02-11T10:22:03.133Z,1.15
2023-02-11T10:25:19.559Z,1.48
2023-02-11T10:28:32.065Z,1.98
2023-02-11T10:31:42.270Z,1.10
2023-02-11T10:34:50.184Z,1.63
2023-02-11T10:37:58.084Z,1.67
2023-02-11T10:41:06.512Z,1.27
2023-02-11T10:44:23.686Z,1.45
2023-02-11T10:47:33.774Z,2.00
2023-02-11T10:50:42.146Z,1.60
2023-02-11T10:53:50.969Z,1.60
2023-02-11T10:57:00.594Z,1.60
2023-02-11T11:00:23.933Z,2.28
2023-02-11T11:03:35.114Z,1.67
2023-02-11T11:06:42.986Z,1.27
2023-02-11T11:09:53.255Z,1.75
2023-02-11T11:13:02.552Z,1.80
2023-02-11T11:16:23.344Z,1.70
2023-02-11T11:19:31.332Z,1.77
2023-02-11T11:22:39.159Z,1.95
2023-02-11T11:25:47.868Z,1.90
2023-02-11T11:29:01.375Z,1.83
2023-02-11T11:32:15.450Z,1.88
2023-02-11T11:35:26.238Z,2.40
2023-02-11T11:38:34.281Z,1.70
2023-02-11T11:41:44.602Z,1.35
2023-02-11T11:44:58.248Z,1.95
2023-02-11T11:48:08.076Z,2.10
2023-02-11T11:51:16.167Z,2.30
2023-02-11T11:54:24.273Z,2.47
2023-02-11T11:57:32.239Z,2.65
2023-02-11T12:00:44.047Z,2.13
2023-02-11T12:04:27.908Z,1.92
2023-02-11T12:07:44.637Z,1.80
2023-02-11T12:10:58.171Z,1.98
2023-02-11T12:14:12.062Z,1.60
2023-02-11T12:17:28.256Z,2.10
2023-02-11T12:20:39.758Z,1.60
2023-02-11T12:23:58.830Z,2.28
2023-02-11T12:27:09.139Z,2.38
2023-02-11T12:30:40.728Z,1.85
2023-02-11T12:34:06.127Z,2.00
2023-02-11T12:37:20.225Z,1.77
2023-02-11T12:40:33.658Z,1.70
2023-02-11T12:43:41.152Z,1.63
2023-02-11T12:46:50.823Z,2.20
2023-02-11T12:50:08.563Z,1.67
2023-02-11T12:53:31.398Z,1.98
2023-02-11T12:56:42.266Z,1.92
2023-02-11T12:59:56.568Z,2.58
2023-02-11T13:03:06.803Z,2.10
2023-02-11T13:06:16.195Z,1.83
2023-02-11T13:09:25.760Z,2.45
2023-02-11T13:13:07.377Z,1.70
2023-02-11T13:16:20.707Z,1.42
2023-02-11T13:19:31.209Z,1.88
2023-02-11T13:22:40.959Z,2.50
2023-02-11T13:25:51.391Z,1.70
2023-02-11T13:29:07.243Z,2.00
2023-02-11T13:32:15.800Z,2.08
2023-02-11T13:35:30.823Z,2.00
2023-02-11T13:38:38.995Z,2.17
2023-02-11T13:41:52.189Z,2.72
2023-02-11T13:45:02.039Z,2.00
2023-02-11T13:48:16.992Z,2.30
2023-02-11T13:51:36.239Z,1.80
2023-02-11T13:54:48.448Z,2.13
2023-02-11T13:58:39.782Z,2.30
2023-02-11T14:02:39.535Z,1.73
2023-02-11T14:06:31.210Z,1.90
2023-02-11T14:09:40.965Z,2.53
2023-02-11T14:13:06.734Z,2.30
2023-02-11T14:16:20.384Z,2.10
2023-02-11T14:19:35.201Z,2.42
2023-02-11T14:22:45.354Z,2.08
2023-02-11T14:25:57.995Z,1.85
2023-02-11T14:29:09.798Z,2.05
2023-02-11T14:32:33.734Z,2.30
2023-02-11T14:35:49.043Z,1.90
2023-02-11T14:39:01.583Z,1.92
2023-02-11T14:45:22.954Z,2.28
2023-02-11T14:48:32.167Z,2.47
2023-02-11T14:51:41.569Z,2.10
2023-02-11T14:54:49.435Z,2.00
2023-02-11T14:58:14.332Z,2.78
2023-02-11T15:01:28.188Z,2.30
2023-02-11T15:04:37.744Z,2.15
2023-02-11T15:07:49.125Z,2.75
2023-02-11T15:10:57.084Z,3.28
2023-02-11T15:14:10.721Z,2.38
2023-02-11T15:17:20.373Z,2.05
2023-02-11T15:20:29.554Z,2.60
2023-02-11T15:23:40.526Z,1.98
2023-02-11T15:26:57.396Z,2.30
2023-02-11T15:30:31.381Z,2.33
2023-02-11T15:33:39.309Z,2.47
2023-02-11T15:36:47.111Z,2.10
2023-02-11T15:39:56.615Z,2.28
2023-02-11T15:43:05.977Z,2.28
2023-02-11T15:46:15.068Z,1.90
2023-02-11T15:49:23.223Z,2.20
2023-02-11T15:52:31.093Z,2.25
2023-02-11T15:55:41.373Z,2.85
2023-02-11T15:58:49.485Z,2.83
2023-02-11T16:01:58.175Z,2.50
2023-02-11T16:05:07.308Z,2.50
2023-02-11T16:08:24.444Z,2.28
2023-02-11T16:11:34.833Z,2.92
2023-02-11T16:14:42.898Z,3.33
2023-02-11T16:17:50.938Z,2.55
2023-02-11T16:20:59.117Z,3.10
2023-02-11T16:24:08.268Z,2.40
2023-02-11T16:27:22.440Z,2.47
2023-02-11T16:30:33.357Z,3.10
2023-02-11T16:33:41.327Z,3.00
2023-02-11T16:36:49.460Z,2.60
2023-02-11T16:39:58.080Z,2.90
2023-02-11T16:43:07.390Z,2.70
2023-02-11T16:46:15.860Z,2.97
2023-02-11T16:49:25.247Z,2.80
2023-02-11T16:52:33.025Z,2.63
2023-02-11T16:55:41.104Z,2.67
2023-02-11T16:58:50.660Z,3.47
2023-02-11T17:01:58.398Z,2.88
2023-02-11T17:05:07.715Z,2.75
2023-02-11T17:08:15.897Z,2.92
2023-02-11T17:11:24.117Z,2.75
2023-02-11T17:14:33.510Z,2.30
2023-02-11T17:17:41.394Z,2.95
2023-02-11T17:20:49.482Z,2.78
2023-02-11T17:23:57.470Z,2.30
2023-02-11T17:27:05.451Z,2.95
2023-02-11T17:30:16.292Z,2.67
2023-02-11T17:33:24.328Z,2.67
2023-02-11T17:36:33.231Z,2.35
2023-02-11T17:39:41.082Z,2.92
2023-02-11T17:42:49.074Z,2.70
2023-02-11T17:45:58.636Z,2.90
2023-02-11T17:49:06.758Z,3.13
2023-02-11T17:52:14.921Z,2.05
2023-02-11T17:55:23.003Z,3.13
2023-02-11T17:58:30.981Z,2.78
2023-02-11T18:01:41.516Z,2.95
2023-02-11T18:04:49.540Z,2.28
2023-02-11T18:07:57.792Z,3.10
2023-02-11T18:11:09.709Z,2.58
2023-02-11T18:14:17.336Z,2.90
2023-02-11T18:17:26.782Z,2.50
2023-02-11T18:20:34.534Z,2.70
2023-02-11T18:23:42.672Z,2.58
2023-02-11T18:26:50.823Z,2.50
2023-02-11T18:29:58.994Z,2.95
2023-02-11T18:33:11.953Z,2.53
2023-02-11T18:36:20.162Z,2.78
2023-02-11T18:39:28.267Z,3.10
2023-02-11T18:42:36.168Z,3.00
2023-02-11T18:45:44.268Z,3.03
2023-02-11T18:48:55.970Z,3.30
2023-02-11T18:52:04.455Z,2.97
2023-02-11T18:55:12.125Z,3.97
2023-02-11T18:58:21.174Z,3.78
2023-02-11T19:01:29.938Z,3.10
2023-02-11T19:04:39.298Z,3.72
2023-02-11T19:07:47.166Z,2.40
2023-02-11T19:10:55.070Z,2.97
2023-02-11T19:14:10.044Z,3.20
2023-02-11T19:17:17.955Z,2.67
2023-02-11T19:20:27.141Z,3.65
2023-02-11T19:23:35.065Z,2.47
2023-02-11T19:26:43.156Z,2.92
2023-02-11T19:29:51.057Z,3.10
2023-02-11T19:32:59.042Z,2.95
2023-02-11T19:36:09.653Z,3.60
2023-02-11T19:39:18.429Z,3.10
2023-02-11T19:42:27.713Z,3.20
2023-02-11T19:45:38.176Z,2.92
2023-02-11T19:48:46.053Z,3.58
2023-02-11T19:51:57.318Z,2.70
2023-02-11T19:55:05.257Z,2.92
2023-02-11T19:58:13.359Z,2.78
2023-02-11T20:01:22.573Z,2.88
2023-02-11T20:04:32.089Z,3.88
2023-02-11T20:07:41.288Z,3.22
2023-02-11T20:10:49.569Z,2.60
2023-02-11T20:13:57.755Z,3.17
2023-02-11T20:17:05.636Z,2.78
2023-02-11T20:20:13.851Z,2.65
2023-02-11T20:23:23.106Z,2.75
2023-02-11T20:26:32.240Z,3.00
2023-02-11T20:29:40.253Z,2.90
2023-02-11T20:32:47.971Z,3.10
2023-02-11T20:35:57.244Z,3.70
2023-02-11T20:39:06.592Z,2.85
2023-02-11T20:42:14.930Z,2.63
2023-02-11T20:45:23.245Z,2.72
2023-02-11T20:48:31.455Z,2.42
2023-02-11T20:51:39.517Z,2.60
2023-02-11T20:54:48.926Z,3.47
2023-02-11T20:57:57.565Z,2.92
2023-02-11T21:01:09.484Z,2.63
2023-02-11T21:04:17.929Z,2.60
2023-02-11T21:07:29.229Z,2.63
2023-02-11T21:10:38.399Z,3.05
2023-02-11T21:13:46.583Z,2.53
2023-02-11T21:16:54.665Z,3.70
2023-02-11T21:20:02.840Z,2.42
2023-02-11T21:23:10.923Z,3.80
2023-02-11T21:26:20.508Z,2.85
2023-02-11T21:29:28.426Z,3.42
2023-02-11T21:32:36.681Z,2.80
2023-02-11T21:35:45.324Z,3.47
2023-02-11T21:38:53.639Z,3.67
2023-02-11T21:42:02.887Z,2.67
2023-02-11T21:45:11.163Z,2.75
2023-02-11T21:48:18.951Z,3.10
2023-02-11T21:51:27.041Z,3.58
2023-02-11T21:54:34.831Z,2.80
2023-02-11T21:57:44.326Z,4.25
2023-02-11T22:00:52.434Z,3.10
2023-02-11T22:04:00.711Z,2.67
2023-02-11T22:07:08.862Z,2.83
2023-02-11T22:10:16.904Z,3.65
2023-02-11T22:13:26.468Z,3.30
2023-02-11T22:16:34.706Z,2.72
2023-02-11T22:19:42.771Z,3.47
2023-02-11T22:22:51.574Z,2.95
2023-02-11T22:25:59.819Z,3.00
2023-02-11T22:29:09.252Z,3.22
2023-02-11T22:32:17.735Z,3.67
2023-02-11T22:35:25.507Z,3.58
2023-02-11T22:38:33.746Z,3.53
2023-02-11T22:41:41.846Z,3.13
2023-02-11T22:44:51.174Z,3.15
2023-02-11T22:47:59.312Z,3.38
2023-02-11T22:51:08.050Z,3.13
2023-02-11T22:54:16.900Z,3.40
2023-02-11T22:57:25.085Z,3.05
2023-02-11T23:00:38.570Z,3.63
2023-02-11T23:03:46.784Z,3.78
2023-02-11T23:06:54.558Z,3.22
2023-02-11T23:10:02.340Z,3.88
2023-02-11T23:13:11.110Z,3.20
2023-02-11T23:16:21.246Z,2.90
2023-02-11T23:19:28.945Z,3.42
2023-02-11T23:22:37.010Z,3.30
2023-02-11T23:25:45.173Z,3.25
2023-02-11T23:28:53.286Z,3.70
2023-02-11T23:32:02.850Z,3.15
2023-02-11T23:35:10.908Z,3.42
2023-02-11T23:38:18.748Z,3.47
2023-02-11T23:41:27.016Z,3.92
2023-02-11T23:44:34.774Z,2.88
2023-02-11T23:47:45.094Z,3.35
2023-02-11T23:50:53.143Z,3.08
2023-02-11T23:54:01.627Z,3.30
2023-02-11T23:57:09.254Z,3.58
